Time;durP1;ratioP1;P1;durP2;ratioP2;P2;SDS_P1;SDS_P2;PMS_P1;PMS_P2;Temp;Humidity;BMP_temperature;BMP_pressure;BME280_temperature;BME280_humidity;BME280_pressure;Samples;Min_cycle;Max_cycle;Signal;HPM_P1;HPM_P2
2023/06/08 00:00:57;;;;;;;9.63;6.88;;;;;;;14.87;89.67;101651.78;5119201;28;20033;-66
2023/06/08 00:03:22;;;;;;;14.25;7.78;;;;;;;14.77;89.65;101644.06;5120153;28;20023;-66
2023/06/08 00:05:48;;;;;;;14.25;7.32;;;;;;;14.70;89.34;101630.50;5117802;28;20421;-67
2023/06/08 00:08:14;;;;;;;11.23;7.05;;;;;;;14.74;89.49;101639.06;5113785;28;20036;-67
2023/06/08 00:10:45;;;;;;;10.43;6.68;;;;;;;14.72;89.37;101641.13;5119887;28;20028;-67
2023/06/08 00:13:11;;;;;;;12.95;7.07;;;;;;;14.72;89.29;101635.72;5101120;28;20384;-66
2023/06/08 00:15:36;;;;;;;10.73;6.85;;;;;;;14.56;89.81;101612.56;5117468;28;20031;-66
2023/06/08 00:18:02;;;;;;;11.27;6.85;;;;;;;14.74;89.57;101636.34;5118129;28;20028;-67
2023/06/08 00:20:28;;;;;;;8.75;6.57;;;;;;;14.75;89.74;101641.56;5120000;28;20083;-67
2023/06/08 00:22:56;;;;;;;14.82;7.68;;;;;;;14.75;89.65;101636.13;5119833;28;20027;-66
2023/06/08 00:25:22;;;;;;;17.38;8.70;;;;;;;14.78;90.02;101635.72;5119830;28;20035;-66
2023/06/08 00:27:47;;;;;;;15.65;8.93;;;;;;;14.83;90.78;101639.69;5117415;28;20031;-67
2023/06/08 00:30:16;;;;;;;13.85;8.98;;;;;;;14.87;91.02;101635.53;5118584;28;20039;-67
2023/06/08 00:32:41;;;;;;;16.88;9.25;;;;;;;14.88;91.39;101616.34;5120746;28;20015;-67
2023/06/08 00:35:07;;;;;;;20.30;9.57;;;;;;;15.02;91.85;101628.84;5102216;28;20030;-66
2023/06/08 00:37:35;;;;;;;16.08;9.43;;;;;;;15.10;92.47;101633.25;5118556;28;20031;-66
2023/06/08 00:40:01;;;;;;;21.65;10.25;;;;;;;15.13;92.73;101623.84;5120264;28;20080;-67
2023/06/08 00:42:26;;;;;;;14.48;9.27;;;;;;;15.14;93.30;101623.66;5118384;28;20118;-67
2023/06/08 00:44:52;;;;;;;13.77;9.05;;;;;;;15.10;93.63;101624.25;5118928;28;20040;-66
2023/06/08 00:47:18;;;;;;;17.77;9.48;;;;;;;15.10;94.11;101624.25;5085042;28;20032;-67
2023/06/08 00:49:44;;;;;;;17.80;9.40;;;;;;;15.08;94.59;101615.53;5101635;28;20376;-67
2023/06/08 00:52:10;;;;;;;17.65;9.90;;;;;;;15.08;94.60;101610.09;5120166;28;20027;-67
2023/06/08 00:54:39;;;;;;;13.05;8.55;;;;;;;15.12;95.11;101611.34;5101604;28;20027;-67
2023/06/08 00:57:06;;;;;;;17.30;10.35;;;;;;;15.14;95.10;101612.81;5119847;28;20035;-67
2023/06/08 00:59:32;;;;;;;16.73;10.05;;;;;;;15.19;95.11;101615.72;5101949;28;20028;-66
2023/06/08 01:01:58;;;;;;;16.25;9.57;;;;;;;15.14;95.50;101606.56;5118342;28;20140;-67
2023/06/08 01:04:25;;;;;;;17.33;10.02;;;;;;;15.17;95.64;101611.56;5119445;28;20024;-67
2023/06/08 01:07:02;;;;;;;17.70;10.63;;;;;;;15.19;95.96;101613.00;5118743;28;20031;-67
2023/06/08 01:09:44;;;;;;;17.92;9.77;;;;;;;15.17;95.82;101611.56;5119605;28;20445;-67
2023/06/08 01:12:24;;;;;;;12.65;9.13;;;;;;;15.16;95.98;101608.00;5119789;28;20023;-67
2023/06/08 01:15:09;;;;;;;16.15;9.57;;;;;;;15.18;96.33;101610.50;5119073;28;20024;-67
2023/06/08 01:17:40;;;;;;;17.88;10.07;;;;;;;15.15;96.12;101606.34;5116223;28;20038;-66
2023/06/08 01:20:36;;;;;;;16.45;10.02;;;;;;;15.09;95.88;101604.44;5114986;28;20147;-66
2023/06/08 01:23:25;;;;;;;17.67;11.02;;;;;;;15.03;95.82;101602.56;5114965;28;20024;-66
2023/06/08 01:25:52;;;;;;;16.77;10.20;;;;;;;14.99;95.93;101596.75;5117775;28;20031;-67
2023/06/08 01:28:18;;;;;;;18.27;10.07;;;;;;;14.97;96.26;101598.00;5121502;27;20028;-67
2023/06/08 01:30:48;;;;;;;16.13;10.48;;;;;;;14.97;96.59;101596.13;5121134;28;20487;-67
2023/06/08 01:33:27;;;;;;;19.10;10.70;;;;;;;14.97;96.31;101595.31;5123712;28;20016;-66
2023/06/08 01:36:26;;;;;;;17.92;9.73;;;;;;;14.95;96.54;101595.50;5122181;28;20020;-67
2023/06/08 01:39:14;;;;;;;16.08;9.30;;;;;;;14.92;96.43;101595.91;5123520;27;20429;-67
2023/06/08 01:41:44;;;;;;;21.23;11.13;;;;;;;14.88;96.48;101588.41;5123332;28;20034;-67
2023/06/08 01:44:13;;;;;;;17.75;9.68;;;;;;;14.84;96.76;101579.88;5122709;28;20024;-67
2023/06/08 01:46:39;;;;;;;16.35;10.15;;;;;;;14.68;96.45;101561.31;5121483;28;20027;-67
2023/06/08 01:49:06;;;;;;;16.70;10.93;;;;;;;14.61;96.46;101550.50;5121522;28;20049;-67
2023/06/08 01:51:36;;;;;;;18.13;10.52;;;;;;;14.77;96.79;101576.34;5121662;28;20024;-67
2023/06/08 01:54:04;;;;;;;17.92;10.57;;;;;;;14.71;96.92;101580.69;5122480;28;20019;-67
2023/06/08 01:56:34;;;;;;;21.08;11.30;;;;;;;14.74;96.92;101580.28;5122097;28;20117;-67
2023/06/08 01:59:00;;;;;;;20.30;11.13;;;;;;;14.74;96.69;101584.88;5122582;28;20047;-67
2023/06/08 02:01:26;;;;;;;19.17;10.30;;;;;;;14.76;96.89;101580.91;5122588;28;20032;-67
2023/06/08 02:03:51;;;;;;;17.15;11.00;;;;;;;14.65;96.87;101567.16;5121681;28;20039;-67
2023/06/08 02:06:17;;;;;;;19.70;12.63;;;;;;;14.76;96.95;101582.78;5103975;28;20034;-67
2023/06/08 02:08:42;;;;;;;21.50;12.88;;;;;;;14.78;97.56;101586.13;5122093;28;20114;-66
2023/06/08 02:11:11;;;;;;;23.90;15.00;;;;;;;14.83;97.55;101586.31;5121014;28;20039;-67
2023/06/08 02:13:43;;;;;;;25.05;14.32;;;;;;;14.87;97.74;101584.88;5120891;28;20057;-67
2023/06/08 02:16:10;;;;;;;28.95;15.27;;;;;;;14.88;97.98;101583.84;5121588;28;20032;-66
2023/06/08 02:18:39;;;;;;;29.92;16.27;;;;;;;14.74;98.59;101571.34;5121566;27;20058;-67
2023/06/08 02:21:04;;;;;;;21.10;14.10;;;;;;;14.81;99.12;101593.84;5104161;28;20052;-66
2023/06/08 02:23:30;;;;;;;22.88;15.05;;;;;;;14.80;99.07;101586.72;5120865;28;20794;-67
2023/06/08 02:25:55;;;;;;;28.55;16.23;;;;;;;14.77;99.17;101590.72;5120177;28;20539;-66
2023/06/08 02:28:21;;;;;;;35.17;15.85;;;;;;;14.83;99.70;101602.56;5121190;28;20124;-66
2023/06/08 02:30:47;;;;;;;25.30;14.40;;;;;;;14.82;99.96;101594.66;5119818;28;20028;-66
2023/06/08 02:33:14;;;;;;;28.30;13.68;;;;;;;14.71;99.38;101582.59;5120748;28;20482;-67
2023/06/08 02:35:39;;;;;;;28.92;15.32;;;;;;;14.66;100.00;101594.03;5119605;28;20433;-66
2023/06/08 02:38:05;;;;;;;28.20;16.40;;;;;;;14.77;99.60;101595.31;5118690;28;20472;-66
2023/06/08 02:40:30;;;;;;;32.50;17.35;;;;;;;14.92;99.86;101587.78;5118547;28;20031;-67
2023/06/08 02:42:56;;;;;;;31.05;16.75;;;;;;;15.08;100.00;101591.94;5119382;28;20027;-66
2023/06/08 02:45:22;;;;;;;29.48;16.33;;;;;;;15.19;99.53;101596.72;5118569;28;20094;-66
2023/06/08 02:47:47;;;;;;;28.13;17.77;;;;;;;15.30;98.95;101599.84;5119215;28;20028;-66
2023/06/08 02:50:12;;;;;;;26.95;16.67;;;;;;;15.26;99.20;101597.59;5101842;28;20032;-67
2023/06/08 02:52:38;;;;;;;22.05;14.68;;;;;;;15.27;98.93;101591.09;5120470;28;20589;-67
2023/06/08 02:55:04;;;;;;;20.52;11.95;;;;;;;15.33;98.81;101588.56;5118860;28;20024;-67
2023/06/08 02:57:29;;;;;;;18.45;12.40;;;;;;;15.29;98.18;101593.59;5120350;28;20391;-67
2023/06/08 02:59:55;;;;;;;26.95;13.18;;;;;;;15.27;97.96;101590.28;5120658;28;20046;-67
2023/06/08 03:02:21;;;;;;;17.48;10.82;;;;;;;15.19;97.92;101585.88;5122050;28;20026;-66
2023/06/08 03:04:46;;;;;;;22.20;13.65;;;;;;;15.21;97.67;101593.81;5120940;28;20035;-67
2023/06/08 03:07:15;;;;;;;20.95;12.05;;;;;;;15.39;96.84;101587.72;5122453;28;20096;-66
2023/06/08 03:09:41;;;;;;;17.52;11.70;;;;;;;15.87;94.83;101585.53;5120369;28;20487;-66
2023/06/08 03:12:09;;;;;;;19.50;12.85;;;;;;;16.55;91.65;101579.50;5121602;28;20047;-67
2023/06/08 03:14:35;;;;;;;14.77;10.77;;;;;;;16.93;88.93;101577.81;5121903;28;20028;-67
2023/06/08 03:17:02;;;;;;;13.48;10.05;;;;;;;17.13;87.23;101582.00;5120730;28;20036;-67
2023/06/08 03:19:31;;;;;;;18.60;11.95;;;;;;;17.48;85.32;101578.72;5118696;28;20036;-67
2023/06/08 03:22:04;;;;;;;16.65;11.40;;;;;;;17.83;84.97;101575.41;5121296;28;20048;-67
2023/06/08 03:24:33;;;;;;;20.65;12.50;;;;;;;18.07;83.30;101582.63;5118887;28;20023;-66
2023/06/08 03:27:03;;;;;;;19.83;12.45;;;;;;;18.39;81.89;101579.69;5118333;28;20024;-66
2023/06/08 03:29:30;;;;;;;21.45;11.90;;;;;;;18.53;80.35;101580.31;5118269;28;20031;-67
2023/06/08 03:31:56;;;;;;;19.50;10.52;;;;;;;18.75;79.29;101583.34;5132553;28;20061;-66
2023/06/08 03:34:25;;;;;;;11.95;9.30;;;;;;;19.06;77.68;101584.91;5122822;28;20023;-67
2023/06/08 03:36:54;;;;;;;13.35;9.55;;;;;;;19.38;77.01;101581.84;5119423;28;20031;-67
2023/06/08 03:39:20;;;;;;;14.65;9.40;;;;;;;19.56;75.64;101589.03;5120466;28;20028;-67
2023/06/08 03:41:46;;;;;;;19.17;10.00;;;;;;;19.75;75.23;101587.84;5120803;28;20046;-67
2023/06/08 03:44:11;;;;;;;16.10;9.90;;;;;;;20.13;73.86;101583.69;5120892;28;20023;-67
2023/06/08 03:46:37;;;;;;;13.43;9.48;;;;;;;20.60;72.80;101589.78;5103020;28;20028;-67
2023/06/08 03:49:02;;;;;;;10.55;8.10;;;;;;;20.84;71.82;101574.06;5117981;28;20091;-67
2023/06/08 03:51:28;;;;;;;12.65;8.88;;;;;;;21.29;70.61;101581.31;5101811;28;20028;-67
2023/06/08 03:53:53;;;;;;;12.85;8.95;;;;;;;21.48;70.17;101584.59;5119818;28;20472;-68
2023/06/08 03:56:18;;;;;;;15.40;8.65;;;;;;;21.74;69.02;101579.47;5119410;28;20024;-67
2023/06/08 03:58:44;;;;;;;13.05;9.32;;;;;;;21.90;68.72;101570.34;5117959;28;20034;-67
2023/06/08 04:01:10;;;;;;;12.88;9.32;;;;;;;22.32;67.87;101586.19;5119285;28;20028;-67
2023/06/08 04:03:36;;;;;;;14.18;9.88;;;;;;;22.15;67.24;101541.56;5119535;28;20049;-67
2023/06/08 04:06:04;;;;;;;17.50;11.65;;;;;;;22.25;66.75;101588.28;5099877;28;20027;-67
2023/06/08 04:08:31;;;;;;;17.67;11.10;;;;;;;21.88;68.03;101585.38;5117579;28;20399;-67
2023/06/08 04:10:58;;;;;;;17.90;12.15;;;;;;;21.30;69.95;101590.34;5115887;28;20027;-68
2023/06/08 04:13:24;;;;;;;18.83;12.85;;;;;;;20.26;74.25;101604.44;5118074;28;20024;-67
2023/06/08 04:15:49;;;;;;;18.50;12.88;;;;;;;19.15;80.06;101599.88;5122809;28;20020;-67
2023/06/08 04:18:15;;;;;;;18.08;12.60;;;;;;;18.66;83.51;101601.09;5108782;28;20063;-70
2023/06/08 04:20:41;;;;;;;17.08;12.93;;;;;;;18.67;84.14;101595.38;5092244;28;20083;-67
2023/06/08 04:23:06;;;;;;;18.17;12.77;;;;;;;18.61;84.99;101582.72;5130548;28;20024;-69
2023/06/08 04:25:32;;;;;;;19.90;13.65;;;;;;;18.72;86.07;101592.00;5122265;28;20467;-67
2023/06/08 04:27:57;;;;;;;19.42;13.57;;;;;;;19.30;84.35;101595.81;5118439;28;20087;-68
2023/06/08 04:30:23;;;;;;;19.52;13.35;;;;;;;19.76;83.02;101589.50;5120043;28;20034;-68
2023/06/08 04:32:48;;;;;;;22.27;14.13;;;;;;;19.75;83.47;101590.59;5117636;28;20081;-68
2023/06/08 04:35:14;;;;;;;21.85;13.30;;;;;;;19.97;83.50;101585.31;5119583;28;20027;-68
2023/06/08 04:37:41;;;;;;;21.88;13.30;;;;;;;19.98;84.13;101580.66;5118900;28;20451;-67
2023/06/08 04:40:09;;;;;;;21.73;12.90;;;;;;;20.02;84.68;101587.31;5118582;28;20023;-68
2023/06/08 04:42:39;;;;;;;25.75;13.75;;;;;;;19.90;85.85;101584.59;5117175;28;20043;-68
2023/06/08 04:45:08;;;;;;;22.92;12.73;;;;;;;19.89;86.48;101572.84;5119424;28;20317;-68
2023/06/08 04:47:36;;;;;;;22.67;12.02;;;;;;;19.94;87.39;101588.53;5118650;28;20030;-67
2023/06/08 04:50:03;;;;;;;22.30;11.48;;;;;;;20.04;87.81;101585.16;5119154;28;20027;-67
2023/06/08 04:52:30;;;;;;;22.25;12.95;;;;;;;20.02;88.32;101585.41;5118584;28;20127;-67
2023/06/08 04:55:00;;;;;;;23.08;13.15;;;;;;;20.08;88.87;101581.69;5116713;28;20035;-67
2023/06/08 04:57:26;;;;;;;27.48;14.55;;;;;;;19.99;89.42;101580.41;5086233;28;20091;-67
2023/06/08 04:59:51;;;;;;;27.58;14.55;;;;;;;19.90;90.28;101577.25;5118348;28;20066;-68
2023/06/08 05:02:17;;;;;;;28.45;15.30;;;;;;;19.62;91.58;101558.88;5105676;28;20026;-67
2023/06/08 05:04:42;;;;;;;33.25;15.93;;;;;;;19.84;91.71;101580.13;5127430;28;20039;-72
2023/06/08 05:07:08;;;;;;;25.27;14.52;;;;;;;19.90;91.61;101584.59;5127219;28;20043;-68
2023/06/08 05:09:33;;;;;;;27.58;15.07;;;;;;;19.89;91.89;101582.94;5123281;28;20030;-67
2023/06/08 05:11:59;;;;;;;35.22;16.08;;;;;;;19.96;91.79;101586.34;5122196;28;20034;-67
2023/06/08 05:14:24;;;;;;;29.48;16.20;;;;;;;19.93;92.14;101581.38;5120508;28;20061;-67
2023/06/08 05:16:50;;;;;;;28.83;16.52;;;;;;;19.85;92.28;101566.22;5103467;28;20074;-67
2023/06/08 05:19:15;;;;;;;30.13;15.57;;;;;;;19.94;92.55;101588.53;5119820;28;20032;-67
2023/06/08 05:21:41;;;;;;;32.83;15.27;;;;;;;20.04;92.33;101591.47;5122111;28;20036;-67
2023/06/08 05:24:07;;;;;;;29.85;15.98;;;;;;;20.08;92.36;101583.59;5121048;28;20028;-67
2023/06/08 05:26:33;;;;;;;31.63;15.15;;;;;;;20.04;92.57;101586.00;5122809;28;20024;-67
2023/06/08 05:28:58;;;;;;;26.83;15.30;;;;;;;20.04;92.49;101579.69;5123438;28;20036;-69
2023/06/08 05:31:26;;;;;;;25.73;14.63;;;;;;;20.27;92.87;101581.50;5122871;28;20101;-67
2023/06/08 05:33:51;;;;;;;25.25;15.00;;;;;;;20.40;92.25;101584.75;5120952;28;20034;-67
2023/06/08 05:36:16;;;;;;;24.30;14.52;;;;;;;20.47;92.18;101590.06;5119366;28;20028;-68
2023/06/08 05:38:42;;;;;;;19.05;13.63;;;;;;;20.54;92.20;101588.03;5119613;28;20446;-67
2023/06/08 05:41:07;;;;;;;24.67;14.32;;;;;;;20.59;91.90;101598.22;5118151;28;20034;-67
2023/06/08 05:43:33;;;;;;;27.50;14.27;;;;;;;20.56;91.56;101593.25;5118469;28;20028;-67
2023/06/08 05:45:58;;;;;;;25.10;14.75;;;;;;;20.52;91.62;101595.66;5120778;28;20075;-67
2023/06/08 05:48:24;;;;;;;19.77;13.43;;;;;;;20.40;92.21;101600.34;5119807;27;20027;-67
2023/06/08 05:50:49;;;;;;;18.17;12.70;;;;;;;20.58;91.45;101581.00;5122147;28;20031;-67
2023/06/08 05:53:15;;;;;;;19.80;12.75;;;;;;;20.83;91.48;101604.41;5123124;28;20092;-67
2023/06/08 05:55:41;;;;;;;17.65;12.55;;;;;;;20.85;90.35;101572.97;5122166;28;20482;-68
2023/06/08 05:58:11;;;;;;;15.50;11.35;;;;;;;21.12;89.94;101594.19;5122513;28;20038;-67
2023/06/08 06:00:36;;;;;;;16.85;11.40;;;;;;;20.97;89.89;101600.25;5123299;28;20028;-68
2023/06/08 06:03:02;;;;;;;15.82;11.43;;;;;;;20.69;89.89;101565.59;5123504;28;20079;-67
2023/06/08 06:05:27;;;;;;;19.25;12.23;;;;;;;21.02;89.54;101603.06;5123537;28;20059;-67
2023/06/08 06:07:53;;;;;;;19.63;11.63;;;;;;;21.01;88.83;101589.63;5121789;28;20053;-67
2023/06/08 06:10:18;;;;;;;16.75;11.73;;;;;;;21.24;88.50;101605.88;5121448;28;20107;-67
2023/06/08 06:12:44;;;;;;;17.80;11.18;;;;;;;21.20;88.26;101604.72;5122211;28;20115;-68
2023/06/08 06:15:09;;;;;;;20.30;12.27;;;;;;;21.13;88.22;101609.53;5121625;28;20430;-67
2023/06/08 06:17:35;;;;;;;20.50;12.23;;;;;;;21.11;88.46;101609.78;5123145;28;20087;-67
2023/06/08 06:20:01;;;;;;;18.40;11.43;;;;;;;21.15;88.52;101617.47;5120256;28;20059;-67
2023/06/08 06:22:26;;;;;;;17.27;10.43;;;;;;;21.02;88.50;101602.22;5121640;28;20114;-67
2023/06/08 06:24:51;;;;;;;15.88;11.02;;;;;;;20.98;88.22;101610.09;5104000;28;20110;-69
2023/06/08 06:27:19;;;;;;;18.63;11.10;;;;;;;21.03;88.06;101618.41;5120534;28;20043;-68
2023/06/08 06:29:44;;;;;;;15.40;10.15;;;;;;;21.22;87.55;101610.75;5103716;28;20032;-67
2023/06/08 06:32:10;;;;;;;14.48;9.90;;;;;;;21.53;86.52;101613.97;5120462;28;20112;-67
2023/06/08 06:34:37;;;;;;;18.52;11.05;;;;;;;21.57;86.04;101615.13;5121808;27;20020;-67
2023/06/08 06:37:02;;;;;;;14.35;9.98;;;;;;;21.83;85.25;101613.56;5103482;28;20023;-67
2023/06/08 06:39:29;;;;;;;15.75;10.57;;;;;;;21.98;84.49;101607.44;5120882;28;20038;-67
2023/06/08 06:41:54;;;;;;;14.23;10.38;;;;;;;21.92;84.28;101601.06;5121108;28;20502;-68
2023/06/08 06:44:20;;;;;;;13.50;9.60;;;;;;;21.88;84.31;101608.13;5121668;28;20530;-68
2023/06/08 06:46:45;;;;;;;17.35;10.20;;;;;;;21.84;84.19;101603.44;5103342;28;20055;-67
2023/06/08 06:49:11;;;;;;;16.33;10.45;;;;;;;21.77;84.09;101609.09;5120587;28;20020;-67
2023/06/08 06:51:37;;;;;;;17.15;9.88;;;;;;;21.61;83.94;101597.09;5121123;28;20019;-67
2023/06/08 06:54:02;;;;;;;14.55;10.15;;;;;;;21.73;84.05;101607.94;5120631;28;20047;-68
2023/06/08 06:56:28;;;;;;;19.38;11.45;;;;;;;21.68;83.94;101614.19;5121965;28;20027;-68
2023/06/08 06:58:55;;;;;;;18.15;10.52;;;;;;;21.62;84.17;101614.34;5120106;28;20097;-68
2023/06/08 07:01:23;;;;;;;22.02;11.60;;;;;;;21.66;83.99;101607.31;5120193;28;20051;-67
2023/06/08 07:03:49;;;;;;;17.08;11.25;;;;;;;21.64;84.06;101612.22;5103427;28;20028;-67
2023/06/08 07:06:15;;;;;;;20.27;12.32;;;;;;;21.60;84.06;101614.63;5120126;28;20030;-67
2023/06/08 07:08:43;;;;;;;19.83;11.57;;;;;;;21.57;84.25;101618.69;5120314;28;20035;-67
2023/06/08 07:11:11;;;;;;;24.10;10.95;;;;;;;21.61;84.24;101623.66;5121304;28;20447;-67
2023/06/08 07:13:39;;;;;;;24.35;13.00;;;;;;;21.55;84.14;101628.25;5119691;28;20055;-67
2023/06/08 07:16:05;;;;;;;20.35;12.50;;;;;;;21.55;83.87;101620.84;5103454;28;20038;-68
2023/06/08 07:18:31;;;;;;;19.77;12.27;;;;;;;21.37;83.64;101601.97;5122045;28;20040;-67
2023/06/08 07:20:56;;;;;;;19.75;12.80;;;;;;;21.37;84.25;101631.28;5121277;28;20043;-68
2023/06/08 07:23:22;;;;;;;19.00;11.30;;;;;;;21.37;83.75;101612.94;5119567;28;20027;-67
2023/06/08 07:25:47;;;;;;;22.02;12.73;;;;;;;21.58;83.52;101631.28;5120918;28;20083;-67
2023/06/08 07:28:13;;;;;;;18.63;12.02;;;;;;;21.58;83.29;101625.81;5121386;28;20016;-67
2023/06/08 07:30:38;;;;;;;17.58;11.07;;;;;;;21.69;83.25;101634.16;5120576;28;20057;-67
2023/06/08 07:33:04;;;;;;;18.67;11.88;;;;;;;21.75;82.94;101641.38;5121327;28;20024;-68
2023/06/08 07:35:29;;;;;;;18.02;10.35;;;;;;;21.75;82.64;101631.25;5120699;28;20028;-68
2023/06/08 07:37:55;;;;;;;20.63;11.88;;;;;;;21.74;82.42;101637.81;5120831;28;20514;-69
2023/06/08 07:40:21;;;;;;;19.08;11.00;;;;;;;21.77;82.21;101639.22;5119124;28;20035;-67
2023/06/08 07:42:47;;;;;;;15.38;10.88;;;;;;;21.79;82.19;101639.81;5120209;28;20024;-68
2023/06/08 07:45:13;;;;;;;15.57;10.80;;;;;;;21.85;81.41;101633.28;5119163;28;20030;-68
2023/06/08 07:47:41;;;;;;;12.55;9.25;;;;;;;21.96;80.96;101640.59;5119997;28;20433;-67
2023/06/08 07:50:07;;;;;;;18.05;10.05;;;;;;;22.10;80.16;101641.00;5119347;28;20027;-68
2023/06/08 07:52:32;;;;;;;15.40;10.25;;;;;;;22.16;79.64;101639.22;5120239;28;20062;-68
2023/06/08 07:54:58;;;;;;;16.17;10.05;;;;;;;22.24;78.51;101641.47;5119395;28;20083;-67
2023/06/08 07:57:23;;;;;;;15.85;9.70;;;;;;;22.42;77.66;101638.41;5119863;28;20027;-69
2023/06/08 07:59:49;;;;;;;18.23;10.63;;;;;;;22.47;75.82;101632.94;5120638;28;20101;-68
2023/06/08 08:02:14;;;;;;;17.65;10.23;;;;;;;22.75;74.68;101650.25;5120265;28;20024;-68
2023/06/08 08:04:40;;;;;;;17.05;10.93;;;;;;;22.70;74.34;101642.78;5119204;28;20035;-68
2023/06/08 08:07:07;;;;;;;17.75;11.43;;;;;;;22.85;73.22;101646.78;5119506;28;20069;-68
2023/06/08 08:09:32;;;;;;;14.98;9.07;;;;;;;22.85;72.61;101641.28;5119564;28;20038;-68
2023/06/08 08:11:58;;;;;;;17.08;9.18;;;;;;;22.79;72.63;101642.31;5119361;28;20035;-68
2023/06/08 08:14:24;;;;;;;13.73;9.88;;;;;;;22.89;71.39;101639.66;5120594;28;20102;-68
2023/06/08 08:16:50;;;;;;;13.90;8.50;;;;;;;22.69;72.48;101638.38;5120850;28;20033;-67
2023/06/08 08:19:16;;;;;;;21.15;8.35;;;;;;;22.72;71.99;101639.78;5120090;28;20066;-67
2023/06/08 08:21:42;;;;;;;15.88;7.97;;;;;;;22.82;72.33;101637.13;5120309;28;20039;-67
2023/06/08 08:24:07;;;;;;;13.50;8.40;;;;;;;22.65;72.74;101628.19;5120887;28;20514;-67
2023/06/08 08:26:34;;;;;;;15.57;8.27;;;;;;;22.64;72.25;101629.28;5119509;28;20475;-69
2023/06/08 08:28:59;;;;;;;13.63;8.63;;;;;;;22.48;72.68;101628.28;5119401;28;20036;-68
2023/06/08 08:31:25;;;;;;;14.68;9.02;;;;;;;22.71;71.66;101630.75;5118734;28;20104;-68
2023/06/08 08:33:50;;;;;;;13.73;8.23;;;;;;;22.73;70.51;101605.78;5119795;28;20039;-68
2023/06/08 08:36:16;;;;;;;14.32;8.90;;;;;;;22.94;70.54;101623.25;5119026;28;20019;-70
2023/06/08 08:38:43;;;;;;;13.20;8.27;;;;;;;22.91;69.96;101610.03;5120437;28;20061;-68
2023/06/08 08:41:15;;;;;;;15.32;9.63;;;;;;;22.52;71.47;101623.97;5119045;28;20049;-68
2023/06/08 08:43:48;;;;;;;13.05;8.15;;;;;;;22.64;71.52;101618.31;5119892;28;20391;-67
2023/06/08 08:46:14;;;;;;;14.80;9.20;;;;;;;22.66;71.93;101622.44;5119797;28;20023;-68
2023/06/08 08:48:43;;;;;;;14.80;9.65;;;;;;;22.37;73.43;101597.19;5118919;28;20024;-69
2023/06/08 08:51:18;;;;;;;15.38;9.25;;;;;;;22.27;74.95;101610.81;5118805;28;20027;-67
2023/06/08 08:53:48;;;;;;;15.68;9.75;;;;;;;21.82;76.21;101617.38;5119957;28;20058;-67
2023/06/08 08:56:20;;;;;;;18.85;9.70;;;;;;;21.73;77.28;101607.94;5119713;28;20019;-67
2023/06/08 08:58:47;;;;;;;16.67;10.18;;;;;;;21.56;77.69;101613.47;5101089;28;20019;-69
2023/06/08 09:01:13;;;;;;;19.08;10.73;;;;;;;21.28;78.99;101611.66;5114199;28;20525;-67
2023/06/08 09:03:39;;;;;;;12.20;10.18;;;;;;;21.27;79.48;101612.75;5117540;28;20415;-68
2023/06/08 09:06:06;;;;;;;15.27;9.63;;;;;;;21.51;79.86;101616.97;5118209;28;20031;-67
2023/06/08 09:08:31;;;;;;;16.48;11.43;;;;;;;21.65;79.52;101608.38;5119216;28;20445;-67
2023/06/08 09:11:05;;;;;;;16.35;10.88;;;;;;;21.82;79.73;101611.91;5119063;28;20027;-68
2023/06/08 09:13:32;;;;;;;17.10;10.80;;;;;;;22.08;79.09;101598.50;5114626;28;20383;-68
2023/06/08 09:16:38;;;;;;;17.25;12.43;;;;;;;22.15;78.66;101600.00;5118848;28;20039;-68
2023/06/08 09:19:05;;;;;;;17.42;11.02;;;;;;;22.50;77.12;101607.75;5113182;28;20122;-68
2023/06/08 09:21:32;;;;;;;19.77;11.15;;;;;;;22.75;76.49;101604.44;5119431;28;20182;-67
2023/06/08 09:24:12;;;;;;;15.82;10.40;;;;;;;23.23;75.50;101610.03;5101502;28;20024;-68
2023/06/08 09:26:49;;;;;;;17.50;11.35;;;;;;;23.62;73.59;101579.50;5119574;28;20027;-68
2023/06/08 09:29:36;;;;;;;17.70;11.75;;;;;;;24.13;72.34;101607.19;5114027;28;20027;-67
2023/06/08 09:32:02;;;;;;;22.45;11.77;;;;;;;24.34;71.23;101608.09;5115902;28;20038;-68
2023/06/08 09:34:33;;;;;;;22.88;13.77;;;;;;;24.51;70.17;101610.63;5119884;28;20031;-68
2023/06/08 09:37:09;;;;;;;19.65;12.77;;;;;;;24.72;69.78;101608.72;5119840;28;20035;-68
2023/06/08 09:39:42;;;;;;;24.63;13.48;;;;;;;24.81;69.28;101609.81;5120105;28;20062;-68
2023/06/08 09:42:08;;;;;;;20.95;13.85;;;;;;;24.89;68.36;101620.25;5118565;28;20020;-68
2023/06/08 09:44:35;;;;;;;20.55;14.40;;;;;;;24.89;67.51;101613.94;5119792;28;20076;-68
2023/06/08 09:47:19;;;;;;;20.30;12.90;;;;;;;24.78;68.39;101600.19;5119130;28;20450;-68
2023/06/08 09:49:44;;;;;;;25.15;14.20;;;;;;;25.05;67.90;101610.91;5122333;28;20026;-68
2023/06/08 09:52:10;;;;;;;20.38;12.77;;;;;;;25.18;67.28;101606.78;5123477;27;20419;-68
2023/06/08 09:54:36;;;;;;;19.58;12.68;;;;;;;25.17;66.75;101591.38;5123362;28;20027;-68
2023/06/08 09:57:04;;;;;;;21.80;13.00;;;;;;;25.34;66.14;101607.59;5123048;28;20045;-67
2023/06/08 09:59:37;;;;;;;24.05;15.38;;;;;;;25.46;65.63;101608.13;5122351;28;20027;-68
2023/06/08 10:02:15;;;;;;;19.50;14.85;;;;;;;25.21;65.33;101617.25;5122121;28;20016;-68
2023/06/08 10:04:45;;;;;;;21.05;14.20;;;;;;;25.23;65.75;101605.94;5120392;28;20024;-67
2023/06/08 10:07:15;;;;;;;24.67;15.18;;;;;;;25.24;65.76;101599.34;5119340;28;20031;-68
2023/06/08 10:09:44;;;;;;;24.38;15.10;;;;;;;25.38;65.01;101611.44;5120545;28;20039;-68
2023/06/08 10:12:10;;;;;;;21.88;13.73;;;;;;;25.41;64.90;101604.53;5122411;28;20027;-68
2023/06/08 10:14:36;;;;;;;24.23;16.00;;;;;;;25.35;64.66;101600.16;5103542;28;20051;-68
2023/06/08 10:17:02;;;;;;;18.67;12.20;;;;;;;25.43;65.07;101607.81;5120355;28;20049;-68
2023/06/08 10:19:30;;;;;;;21.40;14.50;;;;;;;25.38;65.05;101608.69;5119923;28;20086;-68
2023/06/08 10:21:57;;;;;;;19.15;12.98;;;;;;;25.41;64.87;101607.28;5122176;28;20396;-68
2023/06/08 10:24:25;;;;;;;19.75;13.27;;;;;;;25.41;63.97;101610.06;5127241;28;20043;-68
2023/06/08 10:26:50;;;;;;;19.60;13.20;;;;;;;25.38;64.07;101611.44;5124692;28;20098;-68
2023/06/08 10:29:25;;;;;;;19.23;13.35;;;;;;;25.28;63.94;101617.78;5118494;28;20028;-68
2023/06/08 10:31:51;;;;;;;20.65;13.55;;;;;;;25.16;63.91;101614.50;5127031;28;20062;-68
2023/06/08 10:34:19;;;;;;;20.15;14.13;;;;;;;25.21;64.41;101616.44;5127298;28;20065;-67
2023/06/08 10:36:44;;;;;;;23.13;13.63;;;;;;;25.29;63.78;101613.91;5128344;28;20087;-68
2023/06/08 10:39:13;;;;;;;18.77;12.50;;;;;;;25.30;63.49;101618.34;5126918;28;20043;-68
2023/06/08 10:41:41;;;;;;;19.00;12.50;;;;;;;25.39;62.71;101617.75;5127117;28;20456;-68
2023/06/08 10:44:23;;;;;;;16.33;11.13;;;;;;;25.32;62.78;101615.28;5127448;28;20023;-68
2023/06/08 10:46:59;;;;;;;15.80;11.82;;;;;;;25.33;63.57;101608.69;5125080;28;20090;-68
2023/06/08 10:49:31;;;;;;;18.83;11.65;;;;;;;25.47;62.82;101614.44;5126035;28;20057;-68
2023/06/08 10:51:58;;;;;;;17.10;11.48;;;;;;;25.36;62.94;101610.88;5124929;28;20030;-67
2023/06/08 10:54:24;;;;;;;16.75;12.25;;;;;;;25.37;62.36;101620.00;5124486;27;20059;-68
2023/06/08 10:56:53;;;;;;;16.25;11.52;;;;;;;25.22;62.93;101612.56;5115730;28;20027;-67
2023/06/08 10:59:31;;;;;;;20.33;11.23;;;;;;;25.39;62.21;101606.75;5122571;28;20065;-68
2023/06/08 11:02:02;;;;;;;15.52;10.82;;;;;;;25.44;62.39;101595.72;5118758;27;20032;-67
2023/06/08 11:04:31;;;;;;;17.92;11.38;;;;;;;25.47;61.61;101606.19;5124712;28;20115;-68
2023/06/08 11:07:03;;;;;;;14.80;10.93;;;;;;;25.42;61.88;101595.97;5121909;28;20020;-68
2023/06/08 11:09:34;;;;;;;14.32;10.52;;;;;;;25.44;61.49;101604.81;5108270;28;20038;-69
2023/06/08 11:12:03;;;;;;;20.90;13.00;;;;;;;25.44;60.88;101607.56;5126921;28;20031;-68
2023/06/08 11:14:29;;;;;;;19.35;12.40;;;;;;;25.36;60.88;101607.28;5123623;28;20042;-68